Welcome to Northern Hawkes Bay. New Zealand.
PWS Header
      nz Flag



Hit Counter


W3C Valid W3C Valid logo


    Wairoa

Select any of the Stations below to visit their websites.










Historic Data from Weather Underground
Select the location of interest below. Wairoa is the default. Please have patience, this Data is slow to load in.
Northern Hawkes Bay Historical Data
Daily Summary for May 15, 2017 Units:  English    Metric   Both
« Previous Day
Next Day »
Daily Weekly Monthly Yearly Custom
  High: Low: Average:
Temperature: 68.5 °F 39.7 °F 50 °F
Dew Point: 50.2 °F 39.6 °F 45 °F
Humidity: 99% 48% 85%
Wind Speed: 6mph 0mph 1.2mph
Wind Gust: 11.4mph - -
Wind- - NNW
Pressure: 30.3 in 30.3 in -
Precipitation: 0 in    
Historical Graphs
 
 
Tabular Data for May 15, 2017
Time Temperature Dew Point Pressure Wind Wind Speed Wind Gust Humidity Rainfall Rate (Hourly) solar
00:00 42.1 °F 41.7 °F 30.3 in Calm     99% 0 in 0 W/m2
00:05 42.1 °F 41.7 °F 30.3 in Calm     99% 0 in 0 W/m2
00:10 41.9 °F 41.5 °F 30.3 in Calm     99% 0 in 0 W/m2
00:15 41.9 °F 41.5 °F 30.3 in Calm     99% 0 in 0 W/m2
00:20 42.1 °F 41.7 °F 30.3 in Calm     99% 0 in 0 W/m2
00:25 41.9 °F 41.5 °F 30.3 in Calm     99% 0 in 0 W/m2
00:32 41.9 °F 41.5 °F 30.3 in Calm     99% 0 in 0 W/m2
00:37 41.9 °F 41.5 °F 30.3 in Calm     99% 0 in 0 W/m2
00:42 41.9 °F 41.5 °F 30.3 in Calm     99% 0 in 0 W/m2
00:47 41.9 °F 41.5 °F 30.3 in Calm     99% 0 in 0 W/m2
00:52 42.1 °F 41.7 °F 30.3 in NW 1.6 mph 6 mph 99% 0 in 0 W/m2
00:55 42.1 °F 41.7 °F 30.3 in NW 2.2 mph 6 mph 99% 0 in 0 W/m2
01:00 41.9 °F 41.5 °F 30.3 in Calm   6 mph 99% 0 in 0 W/m2
01:17 41.7 °F 41.5 °F 30.3 in Calm     99% 0 in 0 W/m2
01:22 41.7 °F 41.5 °F 30.3 in Calm   5.4 mph 99% 0 in 0 W/m2
01:27 41.5 °F 41.4 °F 30.3 in NNW 3.1 mph 6 mph 99% 0 in 0 W/m2
01:32 41.5 °F 41.4 °F 30.3 in NNW 4.5 mph 8.3 mph 99% 0 in 0 W/m2
01:37 41.5 °F 41.4 °F 30.3 in NNW 5.4 mph 8.3 mph 99% 0 in 0 W/m2
01:42 41.5 °F 41.4 °F 30.3 in NNW 1.6 mph 8.3 mph 99% 0 in 0 W/m2
01:47 41.7 °F 41.5 °F 30.3 in NW 5.4 mph 8.3 mph 99% 0 in 0 W/m2
01:52 41.7 °F 41.5 °F 30.3 in NNW 5.4 mph 8.3 mph 99% 0 in 0 W/m2
01:57 41.5 °F 41.4 °F 30.3 in NNW 2.2 mph 8.3 mph 99% 0 in 0 W/m2
02:03 41.5 °F 41.4 °F 30.3 in NNW 3.8 mph 7.6 mph 99% 0 in 0 W/m2
02:08 41.5 °F 41.4 °F 30.3 in NNW 3.8 mph 8.3 mph 99% 0 in 0 W/m2
02:13 41.5 °F 41.4 °F 30.3 in NNW 3.8 mph 8.3 mph 99% 0 in 0 W/m2
02:18 41.4 °F 41.2 °F 30.3 in NNW 1.6 mph 7.6 mph 99% 0 in 0 W/m2
02:23 41.4 °F 41.2 °F 30.3 in NNW 3.8 mph 7.6 mph 99% 0 in 0 W/m2
02:28 41.2 °F 40.8 °F 30.3 in NNW 0.7 mph 8.3 mph 99% 0 in 0 W/m2
02:33 41.2 °F 40.8 °F 30.3 in North 3.1 mph 8.3 mph 99% 0 in 0 W/m2
02:38 41.2 °F 40.8 °F 30.3 in North 3.8 mph 7.6 mph 99% 0 in 0 W/m2
02:43 41.2 °F 40.8 °F 30.3 in NNW 3.1 mph 7.6 mph 99% 0 in 0 W/m2
02:48 41 °F 40.6 °F 30.3 in Calm   7.6 mph 99% 0 in 0 W/m2
02:53 41 °F 40.6 °F 30.3 in NNW 2.2 mph 6 mph 99% 0 in 0 W/m2
02:58 41 °F 40.6 °F 30.3 in NNW 2.2 mph 6 mph 99% 0 in 0 W/m2
03:03 41 °F 40.6 °F 30.3 in NNW 3.8 mph 6 mph 99% 0 in 0 W/m2
03:08 41 °F 40.6 °F 30.3 in NNW 3.1 mph 6.9 mph 99% 0 in 0 W/m2
03:13 41.2 °F 40.8 °F 30.3 in NNW 3.8 mph 7.6 mph 99% 0 in 0 W/m2
03:18 41.2 °F 40.8 °F 30.3 in NNW 4.5 mph 7.6 mph 99% 0 in 0 W/m2
03:23 41.2 °F 40.8 °F 30.3 in NW 4.5 mph 9.2 mph 99% 0 in 0 W/m2
03:28 41.2 °F 40.8 °F 30.3 in NW 4.5 mph 9.2 mph 99% 0 in 0 W/m2
03:33 41.2 °F 40.6 °F 30.3 in NNW 4.5 mph 8.3 mph 98% 0 in 0 W/m2
03:38 41 °F 40.5 °F 30.3 in North 3.8 mph 8.3 mph 98% 0 in 0 W/m2
03:44 41 °F 40.5 °F 30.3 in NNW 3.1 mph 8.3 mph 98% 0 in 0 W/m2
03:50 41 °F 40.5 °F 30.3 in NNW 5.4 mph 7.6 mph 98% 0 in 0 W/m2
03:55 41.2 °F 40.6 °F 30.3 in North 6 mph 8.3 mph 98% 0 in 0 W/m2
04:00 41 °F 40.5 °F 30.3 in North 3.1 mph 9.2 mph 98% 0 in 0 W/m2
04:05 41 °F 40.5 °F 30.3 in North 3.8 mph 9.2 mph 98% 0 in 0 W/m2
04:11 40.8 °F 40.6 °F 30.3 in NNW 4.5 mph 8.3 mph 99% 0 in 0 W/m2
04:16 40.8 °F 40.6 °F 30.3 in NNW 4.5 mph 9.2 mph 99% 0 in 0 W/m2
04:21 40.6 °F 40.5 °F 30.3 in NNW 3.8 mph 9.2 mph 99% 0 in 0 W/m2
04:27 40.5 °F 40.3 °F 30.3 in NW 3.8 mph 7.6 mph 99% 0 in 0 W/m2
04:32 40.3 °F 39.9 °F 30.3 in NNW 3.8 mph 6.9 mph 99% 0 in 0 W/m2
04:37 40.3 °F 39.9 °F 30.3 in NW 4.5 mph 8.3 mph 99% 0 in 0 W/m2
04:42 40.3 °F 39.9 °F 30.3 in NNW 3.1 mph 8.3 mph 99% 0 in 0 W/m2
04:47 40.1 °F 39.7 °F 30.3 in NNW 3.1 mph 8.3 mph 99% 0 in 0 W/m2
04:52 39.9 °F 39.7 °F 30.3 in NNW 3.1 mph 5.4 mph 99% 0 in 0 W/m2
04:57 39.7 °F 39.6 °F 30.3 in NNW 3.1 mph 6.9 mph 99% 0 in 0 W/m2
05:02 39.7 °F 39.6 °F 30.3 in NW 2.2 mph 7.6 mph 99% 0 in 0 W/m2
05:07 39.7 °F 39.6 °F 30.3 in NNW 5.4 mph 7.6 mph 99% 0 in 0 W/m2
05:12 39.9 °F 39.7 °F 30.3 in NNW 4.5 mph 9.8 mph 99% 0 in 0 W/m2
05:17 40.1 °F 39.7 °F 30.3 in NNW 4.5 mph 9.8 mph 99% 0 in 0 W/m2
05:22 40.1 °F 39.7 °F 30.3 in NNW 3.8 mph 9.2 mph 99% 0 in 0 W/m2
05:27 39.9 °F 39.7 °F 30.3 in NNW 5.4 mph 9.2 mph 99% 0 in 0 W/m2
05:33 39.9 °F 39.7 °F 30.3 in NNW 3.8 mph 9.2 mph 99% 0 in 0 W/m2
05:40 39.7 °F 39.6 °F 30.3 in NNW 3.1 mph 8.3 mph 99% 0 in 0 W/m2
05:44 39.7 °F 39.6 °F 30.3 in NNW 5.4 mph 8.3 mph 99% 0 in 0 W/m2
05:50 39.7 °F 39.6 °F 30.3 in NNW 3.8 mph 8.3 mph 99% 0 in 0 W/m2
05:55 39.7 °F 39.6 °F 30.3 in NNW 3.1 mph 8.3 mph 99% 0 in 0 W/m2
06:00 39.7 °F 39.6 °F 30.3 in NNW 3.8 mph 7.6 mph 99% 0 in 0 W/m2
06:05 39.7 °F 39.6 °F 30.3 in NNW 2.2 mph 6.9 mph 99% 0 in 0 W/m2
06:10 39.7 °F 39.6 °F 30.3 in North 2.2 mph 6.9 mph 99% 0 in 0 W/m2
06:15 39.7 °F 39.6 °F 30.3 in North 2.2 mph 6.9 mph 99% 0 in 0 W/m2
06:20 39.7 °F 39.6 °F 30.3 in NNW 1.6 mph 4.5 mph 99% 0 in 0 W/m2
06:25 39.7 °F 39.6 °F 30.3 in NNW 2.2 mph 5.4 mph 99% 0 in 0 W/m2
06:30 39.9 °F 39.7 °F 30.3 in NNW 3.1 mph 6.9 mph 99% 0 in 0 W/m2
06:35 40.3 °F 39.9 °F 30.3 in NNW 2.2 mph 6.9 mph 99% 0 in 0 W/m2
06:40 40.3 °F 39.9 °F 30.3 in NNW 3.1 mph 6.9 mph 99% 0 in 0 W/m2
06:45 40.5 °F 40.3 °F 30.3 in NNW 3.1 mph 6.9 mph 99% 0 in 0 W/m2
06:50 40.3 °F 39.9 °F 30.3 in NNW 3.1 mph 6.9 mph 99% 0 in 0 W/m2
06:55 40.3 °F 39.9 °F 30.3 in NNW 3.8 mph 7.6 mph 99% 0 in 0 W/m2
07:00 40.3 °F 39.9 °F 30.3 in NW 2.2 mph 7.6 mph 99% 0 in 1 W/m2
07:05 40.3 °F 39.9 °F 30.3 in NW 2.2 mph 6.9 mph 99% 0 in 3 W/m2
07:10 40.1 °F 39.7 °F 30.3 in NNW 3.8 mph 6 mph 99% 0 in 4 W/m2
07:15 39.9 °F 39.7 °F 30.3 in NNW 3.1 mph 6.9 mph 99% 0 in 8 W/m2
07:20 39.9 °F 39.7 °F 30.3 in NNW 3.8 mph 6.9 mph 99% 0 in 12 W/m2
07:25 39.9 °F 39.7 °F 30.3 in NNW 4.5 mph 6.9 mph 99% 0 in 26 W/m2
07:30 40.1 °F 39.7 °F 30.3 in NNW 6 mph 9.2 mph 99% 0 in 37 W/m2
07:35 40.3 °F 39.7 °F 30.3 in NNW 5.4 mph 9.2 mph 98% 0 in 59 W/m2
07:40 40.8 °F 40.3 °F 30.3 in NNW 3.1 mph 9.2 mph 98% 0 in 71 W/m2
07:45 41 °F 40.3 °F 30.3 in NNW 3.1 mph 6.9 mph 97% 0 in 61 W/m2
07:50 41 °F 39.9 °F 30.3 in NNW 3.8 mph 6.9 mph 96% 0 in 94 W/m2
07:55 41.5 °F 40.5 °F 30.3 in NNW 3.8 mph 6.9 mph 96% 0 in 69 W/m2
08:00 41.7 °F 40.6 °F 30.3 in NNW 3.8 mph 6 mph 96% 0 in 123 W/m2
08:05 42.1 °F 40.8 °F 30.3 in NNW 3.8 mph 6.9 mph 95% 0 in 136 W/m2
08:07 42.4 °F 41.2 °F 30.3 in NNW 4.5 mph 6.9 mph 95% 0 in 141 W/m2
08:13 43 °F 41.2 °F 30.3 in NNW 4.5 mph 7.6 mph 93% 0 in 152 W/m2
08:18 43.3 °F 41.2 °F 30.3 in NNW 3.8 mph 8.3 mph 92% 0 in 165 W/m2
08:23 43.9 °F 41.4 °F 30.3 in NNW 4.5 mph 8.3 mph 91% 0 in 176 W/m2
08:28 44.1 °F 41 °F 30.3 in North 3.1 mph 9.2 mph 89% 0 in 186 W/m2
08:33 44.4 °F 41.2 °F 30.3 in NNW 5.4 mph 10.7 mph 88% 0 in 197 W/m2
08:38 44.4 °F 40.8 °F 30.3 in NNW 5.4 mph 11.4 mph 87% 0 in 205 W/m2
08:43 44.8 °F 40.8 °F 30.3 in NNW 3.8 mph 11.4 mph 86% 0 in 217 W/m2
08:48 45.3 °F 41.4 °F 30.3 in NNW 4.5 mph 7.6 mph 86% 0 in 228 W/m2
08:53 45.3 °F 41.2 °F 30.3 in NNW 5.4 mph 10.7 mph 85% 0 in 240 W/m2
08:58 45.7 °F 41.4 °F 30.3 in NNW 3.1 mph 10.7 mph 85% 0 in 253 W/m2
09:03 46.4 °F 42.1 °F 30.3 in NNW 0.7 mph 9.2 mph 85% 0 in 265 W/m2
09:08 47.3 °F 43 °F 30.3 in NNW 1.6 mph 6 mph 85% 0 in 275 W/m2
09:13 47.7 °F 42.8 °F 30.3 in NNW 3.1 mph 7.6 mph 83% 0 in 281 W/m2
09:18 47.8 °F 42.6 °F 30.3 in NNW 2.2 mph 9.2 mph 82% 0 in 285 W/m2
09:23 48.4 °F 42.4 °F 30.3 in Calm   9.2 mph 80% 0 in 256 W/m2
09:41 50.2 °F 43.3 °F 30.3 in NNW 2.2 mph 6 mph 77% 0 in 117 W/m2
09:46 50.7 °F 43.9 °F 30.3 in Calm   6 mph 77% 0 in 114 W/m2
09:51 50.9 °F 43.5 °F 30.3 in Calm   6 mph 76% 0 in 127 W/m2
09:56 50.5 °F 43.3 °F 30.3 in Calm   3.1 mph 76% 0 in 165 W/m2
10:01 50.2 °F 43.5 °F 30.3 in Calm   3.1 mph 78% 0 in 175 W/m2
10:06 50.4 °F 44.1 °F 30.3 in Calm     79% 0 in 182 W/m2
10:11 50.7 °F 44.4 °F 30.3 in Calm     79% 0 in 186 W/m2
10:16 51.6 °F 45.7 °F 30.3 in Calm     80% 0 in 178 W/m2
10:21 51.6 °F 44.8 °F 30.3 in Calm     77% 0 in 161 W/m2
10:24 51.3 °F 44.2 °F 30.3 in Calm     77% 0 in 160 W/m2
10:29 51.6 °F 45.3 °F 30.3 in Calm     79% 0 in 185 W/m2
10:34 52.7 °F 45.7 °F 30.3 in Calm     77% 0 in 162 W/m2
10:39 52.9 °F 45.5 °F 30.3 in Calm     76% 0 in 276 W/m2
10:44 53.4 °F 45.7 °F 30.3 in Calm     75% 0 in 304 W/m2
10:50 54.5 °F 46.4 °F 30.3 in Calm     74% 0 in 330 W/m2
10:55 54.7 °F 46.2 °F 30.3 in Calm     73% 0 in 344 W/m2
11:00 55.2 °F 46.4 °F 30.3 in Calm     72% 0 in 351 W/m2
11:05 55.6 °F 47.1 °F 30.3 in Calm     73% 0 in 360 W/m2
11:10 55.9 °F 47.1 °F 30.3 in Calm     72% 0 in 379 W/m2
11:15 56.1 °F 47.1 °F 30.3 in Calm     72% 0 in 415 W/m2
11:20 56.3 °F 46.9 °F 30.3 in Calm     71% 0 in 199 W/m2
11:25 56.3 °F 47.8 °F 30.3 in Calm     73% 0 in 344 W/m2
11:30 57.4 °F 48 °F 30.3 in Calm     71% 0 in 352 W/m2
11:35 57.9 °F 47.5 °F 30.3 in Calm     68% 0 in 345 W/m2
11:40 58.3 °F 47.8 °F 30.3 in Calm     68% 0 in 344 W/m2
11:45 58.8 °F 47.8 °F 30.3 in Calm     67% 0 in 341 W/m2
11:50 59.2 °F 47.8 °F 30.3 in Calm     66% 0 in 338 W/m2
11:55 59 °F 47.7 °F 30.3 in Calm     66% 0 in 334 W/m2
12:00 59.7 °F 47.8 °F 30.3 in Calm     65% 0 in 327 W/m2
12:05 60.4 °F 48.2 °F 30.3 in Calm     64% 0 in 318 W/m2
12:10 60.3 °F 48 °F 30.3 in Calm     64% 0 in 306 W/m2
12:15 60.3 °F 47.7 °F 30.3 in Calm     63% 0 in 292 W/m2
12:20 60.6 °F 48 °F 30.3 in Calm     63% 0 in 272 W/m2
12:25 60.8 °F 47.7 °F 30.3 in Calm     62% 0 in 252 W/m2
12:30 60.8 °F 47.7 °F 30.3 in Calm     62% 0 in 232 W/m2
12:35 61 °F 47.8 °F 30.3 in Calm     62% 0 in 210 W/m2
12:40 61.9 °F 47.8 °F 30.3 in Calm     60% 0 in 182 W/m2
12:45 62.4 °F 47.5 °F 30.3 in Calm     58% 0 in 153 W/m2
12:50 63.9 °F 47.8 °F 30.3 in Calm     56% 0 in 127 W/m2
12:55 63.5 °F 47.5 °F 30.3 in Calm     56% 0 in 110 W/m2
13:00 64.6 °F 48.6 °F 30.3 in Calm     56% 0 in 104 W/m2
13:05 65.7 °F 47.7 °F 30.3 in Calm     52% 0 in 103 W/m2
13:10 64.4 °F 47.5 °F 30.3 in Calm     54% 0 in 95 W/m2
13:15 65.3 °F 46.8 °F 30.3 in Calm     51% 0 in 79 W/m2
13:20 65.5 °F 46.9 °F 30.3 in Calm     51% 0 in 68 W/m2
13:25 66 °F 47.5 °F 30.3 in Calm     51% 0 in 62 W/m2
13:30 66.2 °F 46.6 °F 30.3 in Calm     49% 0 in 62 W/m2
13:35 65.1 °F 45 °F 30.3 in Calm     48% 0 in 63 W/m2
13:40 64.4 °F 47.5 °F 30.3 in Calm     54% 0 in 63 W/m2
13:45 64.2 °F 44.8 °F 30.3 in Calm     49% 0 in 63 W/m2
13:50 64.2 °F 46.8 °F 30.3 in Calm     53% 0 in 65 W/m2
13:55 64 °F 46.6 °F 30.3 in Calm     53% 0 in 68 W/m2
14:00 64.9 °F 47.8 °F 30.3 in Calm     54% 0 in 69 W/m2
14:05 64.6 °F 48 °F 30.3 in Calm     55% 0 in 72 W/m2
14:10 67.1 °F 49.8 °F 30.3 in Calm     54% 0 in 76 W/m2
14:15 66.9 °F 47.7 °F 30.3 in Calm     50% 0 in 83 W/m2
14:16 66.7 °F 48 °F 30.3 in Calm     51% 0 in 85 W/m2
14:21 66.9 °F 48.2 °F 30.3 in Calm     51% 0 in 134 W/m2
14:26 68.5 °F 48.6 °F 30.3 in Calm     49% 0 in 139 W/m2
14:31 66.4 °F 46.8 °F 30.3 in Calm     49% 0 in 141 W/m2
14:36 65.3 °F 47.1 °F 30.3 in Calm     52% 0 in 187 W/m2
14:41 65.3 °F 47.7 °F 30.3 in Calm     53% 0 in 175 W/m2
14:46 65.8 °F 47.7 °F 30.3 in Calm     52% 0 in 247 W/m2
14:51 66 °F 48.9 °F 30.3 in Calm     54% 0 in 223 W/m2
14:56 65.8 °F 47.7 °F 30.3 in Calm     52% 0 in 148 W/m2
15:01 64.9 °F 47.5 °F 30.3 in Calm     53% 0 in 138 W/m2
15:06 64 °F 46.6 °F 30.3 in Calm     53% 0 in 130 W/m2
15:11 63.1 °F 46.2 °F 30.3 in Calm     54% 0 in 117 W/m2
15:16 62.8 °F 46.9 °F 30.3 in Calm     56% 0 in 110 W/m2
15:21 62.6 °F 46.2 °F 30.3 in Calm     55% 0 in 101 W/m2
15:26 62.8 °F 46.9 °F 30.3 in Calm     56% 0 in 93 W/m2
15:31 62.6 °F 47.1 °F 30.3 in Calm     57% 0 in 91 W/m2
15:36 62.6 °F 47.7 °F 30.3 in Calm     58% 0 in 86 W/m2
15:41 62.4 °F 47.8 °F 30.3 in Calm     59% 0 in 81 W/m2
15:46 62.2 °F 47.3 °F 30.3 in Calm     58% 0 in 72 W/m2
15:51 61.7 °F 46.8 °F 30.3 in Calm     58% 0 in 66 W/m2
15:57 61.3 °F 48.2 °F 30.3 in Calm     62% 0 in 60 W/m2
16:02 61 °F 48.7 °F 30.3 in Calm     64% 0 in 52 W/m2
16:07 60.6 °F 49.3 °F 30.3 in Calm     66% 0 in 46 W/m2
16:12 60.1 °F 49.1 °F 30.3 in Calm     67% 0 in 42 W/m2
16:17 59.5 °F 49.5 °F 30.3 in Calm     69% 0 in 39 W/m2
16:22 59.4 °F 49.3 °F 30.3 in Calm     69% 0 in 35 W/m2
16:27 59 °F 48.6 °F 30.3 in Calm     68% 0 in 29 W/m2
16:32 59 °F 48.6 °F 30.3 in Calm     68% 0 in 23 W/m2
16:37 58.6 °F 48.9 °F 30.3 in Calm     70% 0 in 19 W/m2
16:42 58.3 °F 48.9 °F 30.3 in Calm     71% 0 in 12 W/m2
16:47 58.1 °F 49.8 °F 30.3 in Calm     74% 0 in 11 W/m2
16:52 57.7 °F 49.5 °F 30.3 in Calm     74% 0 in 7 W/m2
16:57 57.6 °F 49.6 °F 30.3 in Calm     75% 0 in 5 W/m2
17:02 57 °F 49.5 °F 30.3 in Calm     76% 0 in 3 W/m2
17:07 56.7 °F 49.3 °F 30.3 in Calm     76% 0 in 1 W/m2
17:12 56.5 °F 49.5 °F 30.3 in Calm     77% 0 in 0 W/m2
17:17 56.1 °F 48.9 °F 30.3 in Calm     77% 0 in 0 W/m2
17:23 55.6 °F 48.6 °F 30.3 in Calm     77% 0 in 0 W/m2
17:28 55.4 °F 48.7 °F 30.3 in Calm     78% 0 in 0 W/m2
17:33 54.9 °F 49.1 °F 30.3 in Calm     81% 0 in 0 W/m2
17:38 54.5 °F 49.1 °F 30.3 in Calm     82% 0 in 0 W/m2
17:43 54.3 °F 49.3 °F 30.3 in Calm     83% 0 in 0 W/m2
17:48 54 °F 48.9 °F 30.3 in Calm     83% 0 in 0 W/m2
17:53 53.8 °F 49.1 °F 30.3 in Calm     84% 0 in 0 W/m2
17:58 53.8 °F 49.1 °F 30.3 in Calm     84% 0 in 0 W/m2
18:04 53.6 °F 49.3 °F 30.3 in Calm     85% 0 in 0 W/m2
18:09 53.6 °F 49.5 °F 30.3 in Calm     86% 0 in 0 W/m2
18:14 53.4 °F 49.6 °F 30.3 in Calm     87% 0 in 0 W/m2
18:19 53.4 °F 50 °F 30.3 in Calm     88% 0 in 0 W/m2
18:24 53.2 °F 49.8 °F 30.3 in Calm     88% 0 in 0 W/m2
18:29 53.1 °F 49.6 °F 30.3 in Calm     88% 0 in 0 W/m2
18:34 53.1 °F 49.8 °F 30.3 in Calm     89% 0 in 0 W/m2
18:39 53.1 °F 49.8 °F 30.3 in Calm     89% 0 in 0 W/m2
18:45 53.1 °F 50.2 °F 30.3 in Calm     90% 0 in 0 W/m2
18:50 52.9 °F 50 °F 30.3 in Calm     90% 0 in 0 W/m2
18:55 52.7 °F 49.8 °F 30.3 in Calm     90% 0 in 0 W/m2
19:00 52.5 °F 49.6 °F 30.3 in Calm     90% 0 in 0 W/m2
19:05 52.3 °F 49.8 °F 30.3 in Calm     91% 0 in 0 W/m2
19:10 52.3 °F 49.8 °F 30.3 in Calm     91% 0 in 0 W/m2
19:15 52.2 °F 49.8 °F 30.3 in Calm     92% 0 in 0 W/m2
19:20 52.2 °F 49.8 °F 30.3 in Calm     92% 0 in 0 W/m2
19:25 52 °F 49.6 °F 30.3 in Calm     92% 0 in 0 W/m2
19:30 51.8 °F 49.6 °F 30.3 in Calm     92% 0 in 0 W/m2
19:35 51.8 °F 49.6 °F 30.3 in Calm     92% 0 in 0 W/m2
19:40 51.6 °F 49.6 °F 30.3 in Calm     93% 0 in 0 W/m2
19:45 51.6 °F 50 °F 30.3 in Calm     94% 0 in 0 W/m2
19:50 51.4 °F 49.8 °F 30.3 in Calm     94% 0 in 0 W/m2
19:55 51.4 °F 49.8 °F 30.3 in Calm     94% 0 in 0 W/m2
20:00 51.3 °F 49.8 °F 30.3 in Calm     95% 0 in 0 W/m2
20:05 51.1 °F 49.6 °F 30.3 in Calm     95% 0 in 0 W/m2
20:10 51.1 °F 49.6 °F 30.3 in Calm     95% 0 in 0 W/m2
20:15 50.9 °F 49.5 °F 30.3 in Calm     95% 0 in 0 W/m2
20:20 50.9 °F 49.5 °F 30.3 in Calm     95% 0 in 0 W/m2
20:25 50.9 °F 49.8 °F 30.3 in Calm     96% 0 in 0 W/m2
20:30 50.9 °F 49.8 °F 30.3 in Calm     96% 0 in 0 W/m2
20:35 50.7 °F 49.6 °F 30.3 in Calm     96% 0 in 0 W/m2
20:40 50.5 °F 49.5 °F 30.3 in Calm     96% 0 in 0 W/m2
20:45 50.5 °F 49.5 °F 30.3 in Calm     96% 0 in 0 W/m2
20:50 50.4 °F 49.3 °F 30.3 in Calm     96% 0 in 0 W/m2
20:55 50.2 °F 49.1 °F 30.3 in Calm     96% 0 in 0 W/m2
21:00 50 °F 48.9 °F 30.3 in Calm     96% 0 in 0 W/m2
21:05 49.6 °F 48.7 °F 30.3 in Calm     97% 0 in 0 W/m2
21:10 49.6 °F 48.7 °F 30.3 in Calm     97% 0 in 0 W/m2
21:15 49.5 °F 48.6 °F 30.3 in Calm     97% 0 in 0 W/m2
21:20 49.1 °F 48.4 °F 30.3 in Calm     97% 0 in 0 W/m2
21:25 48.9 °F 48 °F 30.3 in Calm     97% 0 in 0 W/m2
21:30 48.6 °F 48 °F 30.3 in Calm     98% 0 in 0 W/m2
21:35 48.4 °F 47.8 °F 30.3 in Calm     98% 0 in 0 W/m2
21:40 48.2 °F 47.7 °F 30.3 in Calm     98% 0 in 0 W/m2
21:45 48.2 °F 47.7 °F 30.3 in Calm     98% 0 in 0 W/m2
21:50 48.2 °F 47.7 °F 30.3 in Calm     98% 0 in 0 W/m2
21:55 48 °F 47.8 °F 30.3 in Calm     99% 0 in 0 W/m2
22:00 48.2 °F 47.8 °F 30.3 in Calm     99% 0 in 0 W/m2
22:05 48 °F 47.8 °F 30.3 in Calm     99% 0 in 0 W/m2
22:10 48 °F 47.8 °F 30.3 in Calm     99% 0 in 0 W/m2
22:15 47.7 °F 47.5 °F 30.3 in Calm     99% 0 in 0 W/m2
22:20 47.5 °F 47.1 °F 30.3 in Calm     99% 0 in 0 W/m2
22:25 47.5 °F 47.1 °F 30.3 in Calm     99% 0 in 0 W/m2
22:30 47.3 °F 46.9 °F 30.3 in Calm     99% 0 in 0 W/m2
22:35 47.1 °F 46.9 °F 30.3 in Calm     99% 0 in 0 W/m2
22:40 47.1 °F 46.9 °F 30.3 in Calm     99% 0 in 0 W/m2
22:45 46.9 °F 46.8 °F 30.3 in Calm     99% 0 in 0 W/m2
22:50 46.8 °F 46.6 °F 30.3 in Calm     99% 0 in 0 W/m2
22:55 46.6 °F 46.2 °F 30.3 in Calm     99% 0 in 0 W/m2
23:00 46.4 °F 46 °F 30.3 in Calm     99% 0 in 0 W/m2
23:05 46.4 °F 46 °F 30.3 in Calm     99% 0 in 0 W/m2
23:10 46.2 °F 45.3 °F 30.3 in Calm     97% 0 in 0 W/m2
23:15 46.2 °F 45.3 °F 30.3 in Calm     97% 0 in 0 W/m2
23:20 46.2 °F 45.3 °F 30.3 in Calm     97% 0 in 0 W/m2
23:25 46 °F 45.1 °F 30.3 in Calm     97% 0 in 0 W/m2
23:30 45.9 °F 45.1 °F 30.3 in Calm     97% 0 in 0 W/m2
23:35 45.7 °F 45 °F 30.3 in Calm     97% 0 in 0 W/m2
23:40 45.7 °F 45 °F 30.3 in Calm     97% 0 in 0 W/m2
23:45 45.7 °F 45 °F 30.3 in Calm     97% 0 in 0 W/m2
23:50 45.7 °F 45 °F 30.3 in Calm     97% 0 in 0 W/m2
23:55 45.5 °F 44.8 °F 30.3 in Calm     97% 0 in 0 W/m2
Northern Hawkes Bay. New Zealand Historic Data
Compliments of Weather Underground - 2 mb